createdAt,value
2023-02-23T00:02:21.626Z,61519.38
2023-02-23T00:04:50.017Z,61535.06
2023-02-23T00:07:20.567Z,61527.75
2023-02-23T00:09:49.002Z,61522.16
2023-02-23T00:12:17.550Z,61518.53
2023-02-23T00:14:47.609Z,61512.50
2023-02-23T00:17:17.701Z,61505.63
2023-02-23T00:19:49.434Z,61503.91
2023-02-23T00:22:18.512Z,61510.78
2023-02-23T00:24:47.929Z,61510.78
2023-02-23T00:27:21.001Z,61501.56
2023-02-23T00:29:51.786Z,61509.94
2023-02-23T00:32:21.052Z,61504.13
2023-02-23T00:34:50.494Z,61508.22
2023-02-23T00:37:19.556Z,61504.13
2023-02-23T00:39:50.027Z,61509.94
2023-02-23T00:42:18.463Z,61504.03
2023-02-23T00:44:48.793Z,61504.44
2023-02-23T00:47:18.611Z,61507.25
2023-02-23T00:49:46.976Z,61501.75
2023-02-23T00:52:15.565Z,61497.69
2023-02-23T00:54:44.129Z,61504.56
2023-02-23T00:57:12.600Z,61512.19
2023-02-23T00:59:41.049Z,61502.13
2023-02-23T01:02:09.516Z,61503.50
2023-02-23T01:04:39.408Z,61512.41
2023-02-23T01:07:07.919Z,61512.06
2023-02-23T01:09:36.321Z,61506.72
2023-02-23T01:12:07.527Z,61494.56
2023-02-23T01:14:38.111Z,61498.09
2023-02-23T01:17:07.472Z,61497.44
2023-02-23T01:19:39.080Z,61492.75
2023-02-23T01:22:07.477Z,61489.53
2023-02-23T01:24:36.062Z,61494.88
2023-02-23T01:27:06.578Z,61503.34
2023-02-23T01:29:35.729Z,61497.69
2023-02-23T01:32:04.964Z,61501.88
2023-02-23T01:34:33.547Z,61501.75
2023-02-23T01:37:04.621Z,61491.66
2023-02-23T01:39:34.377Z,61487.38
2023-02-23T01:42:05.398Z,61494.88
2023-02-23T01:45:21.199Z,61503.50
2023-02-23T01:47:49.920Z,61491.00
2023-02-23T01:50:19.883Z,61489.09
2023-02-23T01:52:53.469Z,61498.09
2023-02-23T01:55:24.455Z,61488.44
2023-02-23T01:58:02.972Z,61479.31
2023-02-23T02:00:36.532Z,61479.84
2023-02-23T02:03:14.093Z,61486.72
2023-02-23T02:05:43.155Z,61480.41
2023-02-23T02:08:13.939Z,61484.03
2023-02-23T02:10:47.070Z,61476.50
2023-02-23T02:13:24.833Z,61463.88
2023-02-23T02:16:39.048Z,61466.97
2023-02-23T02:19:45.393Z,61471.94
2023-02-23T02:22:45.300Z,61469.66
2023-02-23T02:25:58.885Z,61460.97
2023-02-23T02:29:34.648Z,61453.03
2023-02-23T02:33:05.870Z,61453.66
2023-02-23T02:36:06.036Z,61466.03
2023-02-23T02:38:54.006Z,61468.47
2023-02-23T02:41:35.556Z,61466.31
2023-02-23T02:44:15.207Z,61465.47
2023-02-23T02:46:49.067Z,61470.59
2023-02-23T02:49:27.666Z,61460.66
2023-02-23T02:52:02.579Z,61465.25
2023-02-23T02:54:38.679Z,61454.09
2023-02-23T02:57:09.806Z,61449.91
2023-02-23T03:00:06.847Z,61445.00
2023-02-23T03:02:56.647Z,61453.47
2023-02-23T03:05:47.937Z,61448.75
2023-02-23T03:08:42.043Z,61460.31
2023-02-23T03:11:31.238Z,61443.91
2023-02-23T03:14:39.351Z,61444.44
2023-02-23T03:17:38.558Z,61443.91
2023-02-23T03:20:34.031Z,61443.38
2023-02-23T03:23:29.742Z,61437.06
2023-02-23T03:26:25.890Z,61449.28
2023-02-23T03:29:29.996Z,61450.88
2023-02-23T03:32:26.587Z,61451.00
2023-02-23T03:35:19.929Z,61458.38
2023-02-23T03:38:12.767Z,61454.75
2023-02-23T03:41:02.134Z,61463.53
2023-02-23T03:43:54.229Z,61458.81
2023-02-23T03:46:44.524Z,61458.81
2023-02-23T03:49:32.410Z,61457.97
2023-02-23T03:52:24.940Z,61465.16
2023-02-23T03:55:17.284Z,61468.91
2023-02-23T03:58:07.696Z,61457.31
2023-02-23T04:00:58.888Z,61454.88
2023-02-23T04:03:47.653Z,61452.50
2023-02-23T04:06:36.127Z,61462.47
2023-02-23T04:09:26.162Z,61450.88
2023-02-23T04:12:18.864Z,61451.97
2023-02-23T04:14:54.394Z,61442.53
2023-02-23T04:17:26.519Z,61454.00
2023-02-23T04:19:57.023Z,61449.81
2023-02-23T04:22:25.752Z,61446.06
2023-02-23T04:24:54.162Z,61448.75
2023-02-23T04:27:22.616Z,61453.03
2023-02-23T04:29:51.327Z,61447.25
2023-02-23T04:32:21.319Z,61450.88
2023-02-23T04:34:49.842Z,61455.16
2023-02-23T04:37:19.582Z,61444.56
2023-02-23T04:39:50.211Z,61456.03
2023-02-23T04:42:19.301Z,61449.81
2023-02-23T04:44:47.944Z,61448.84
2023-02-23T04:47:17.462Z,61459.25
2023-02-23T04:49:46.030Z,61454.09
2023-02-23T04:52:14.381Z,61451.41
2023-02-23T04:54:44.191Z,61454.75
2023-02-23T04:57:12.534Z,61456.25
2023-02-23T04:59:40.859Z,61458.91
2023-02-23T05:02:09.462Z,61464.19
2023-02-23T05:04:37.930Z,61469.97
2023-02-23T05:07:06.721Z,61468.16
2023-02-23T05:09:35.163Z,61476.63
2023-02-23T05:12:05.494Z,61480.41
2023-02-23T05:14:33.877Z,61468.28
2023-02-23T05:17:02.293Z,61473.81
2023-02-23T05:19:30.844Z,61471.69
2023-02-23T05:21:59.135Z,61476.09
2023-02-23T05:24:30.281Z,61475.44
2023-02-23T05:26:58.893Z,61470.84
2023-02-23T05:29:28.690Z,61462.91
2023-02-23T05:31:57.231Z,61475.16
2023-02-23T05:34:26.353Z,61477.72
2023-02-23T05:36:55.411Z,61482.00
2023-02-23T05:39:23.836Z,61487.13
2023-02-23T05:41:52.585Z,61482.00
2023-02-23T05:44:21.066Z,61483.06
2023-02-23T05:46:50.835Z,61483.06
2023-02-23T05:49:19.229Z,61485.22
2023-02-23T05:51:47.654Z,61483.31
2023-02-23T05:54:16.114Z,61488.44
2023-02-23T05:56:44.690Z,61478.38
2023-02-23T05:59:13.499Z,61481.47
2023-02-23T06:01:42.160Z,61484.69
2023-02-23T06:04:12.426Z,61477.72
2023-02-23T06:06:41.164Z,61478.78
2023-02-23T06:09:09.724Z,61486.28
2023-02-23T06:11:38.168Z,61477.72
2023-02-23T06:14:06.638Z,61478.25
2023-02-23T06:16:35.390Z,61476.63
2023-02-23T06:19:03.937Z,61483.06
2023-02-23T06:21:34.138Z,61485.75
2023-02-23T06:24:02.622Z,61486.72
2023-02-23T06:26:31.100Z,61483.06
2023-02-23T06:28:59.503Z,61483.06
2023-02-23T06:31:27.960Z,61479.84
2023-02-23T06:33:56.711Z,61484.16
2023-02-23T06:36:25.136Z,61475.56
2023-02-23T06:38:58.036Z,61487.13
2023-02-23T06:41:27.272Z,61484.69
2023-02-23T06:43:55.669Z,61485.63
2023-02-23T06:46:24.720Z,61489.41
2023-02-23T06:48:56.943Z,61481.75
2023-02-23T06:51:25.530Z,61482.00
2023-02-23T06:53:55.232Z,61475.97
2023-02-23T06:56:23.730Z,61485.41
2023-02-23T06:58:52.072Z,61477.28
2023-02-23T07:01:21.326Z,61487.66
2023-02-23T07:03:49.875Z,61482.53
2023-02-23T07:06:18.468Z,61485.22
2023-02-23T07:08:46.809Z,61485.75
2023-02-23T07:11:18.930Z,61486.28
2023-02-23T07:13:47.480Z,61483.19
2023-02-23T07:16:16.420Z,61483.72
2023-02-23T07:18:44.873Z,61486.28
2023-02-23T07:21:13.196Z,61484.28
2023-02-23T07:23:41.568Z,61485.34
2023-02-23T07:26:09.991Z,61493.16
2023-02-23T07:28:39.768Z,61495.31
2023-02-23T07:31:08.230Z,61499.72
2023-02-23T07:33:36.756Z,61500.25
2023-02-23T07:36:06.039Z,61497.44
2023-02-23T07:38:35.263Z,61501.34
2023-02-23T07:41:03.702Z,61503.50
2023-02-23T07:43:32.202Z,61497.03
2023-02-23T07:46:03.107Z,61502.53
2023-02-23T07:48:31.498Z,61499.19
2023-02-23T07:50:59.863Z,61501.34
2023-02-23T07:53:28.400Z,61504.56
2023-02-23T07:56:00.872Z,61511.97
2023-02-23T07:58:30.625Z,61515.31
2023-02-23T08:00:59.479Z,61519.59
2023-02-23T08:03:29.646Z,61526.03
2023-02-23T08:05:58.130Z,61517.56
2023-02-23T08:08:27.135Z,61524.53
2023-02-23T08:11:02.021Z,61528.19
2023-02-23T08:13:31.906Z,61534.53
2023-02-23T08:16:00.575Z,61537.84
2023-02-23T08:18:30.466Z,61535.69
2023-02-23T08:21:03.024Z,61538.91
2023-02-23T08:23:32.113Z,61542.47
2023-02-23T08:26:01.286Z,61544.06
2023-02-23T08:28:30.892Z,61542.13
2023-02-23T08:31:00.056Z,61542.13
2023-02-23T08:33:31.748Z,61549.25
2023-02-23T08:36:02.791Z,61559.63
2023-02-23T08:38:31.390Z,61564.06
2023-02-23T08:41:02.240Z,61562.56
2023-02-23T08:43:30.993Z,61562.97
2023-02-23T08:45:59.630Z,61554.72
2023-02-23T08:48:29.680Z,61557.19
2023-02-23T08:50:59.124Z,61561.06
2023-02-23T08:53:29.737Z,61550.75
2023-02-23T08:56:00.649Z,61547.63
2023-02-23T08:58:30.691Z,61536.88
2023-02-23T09:00:59.470Z,61541.06
2023-02-23T09:03:30.799Z,61549.03
2023-02-23T09:06:05.695Z,61558.16
2023-02-23T09:08:34.189Z,61566.31
2023-02-23T09:11:02.584Z,61566.97
2023-02-23T09:13:31.033Z,61578.00
2023-02-23T09:16:00.389Z,61572.78
2023-02-23T09:18:30.769Z,61570.09
2023-02-23T09:20:59.156Z,61575.88
2023-02-23T09:23:29.778Z,61585.13
2023-02-23T09:25:58.145Z,61591.03
2023-02-23T09:28:31.191Z,61600.59
2023-02-23T09:30:59.793Z,61601.66
2023-02-23T09:33:29.826Z,61604.78
2023-02-23T09:35:58.334Z,61595.84
2023-02-23T09:38:26.885Z,61602.63
2023-02-23T09:40:57.285Z,61596.81
2023-02-23T09:43:33.565Z,61598.53
2023-02-23T09:46:15.393Z,61593.28
2023-02-23T09:48:45.340Z,61592.75
2023-02-23T09:51:20.886Z,61603.16
2023-02-23T09:53:53.575Z,61601.22
2023-02-23T09:56:31.750Z,61596.09
2023-02-23T09:59:01.830Z,61601.22
2023-02-23T10:02:06.776Z,61606.59
2023-02-23T10:04:42.659Z,61614.13
2023-02-23T10:07:19.607Z,61622.72
2023-02-23T10:10:04.593Z,61628.94
2023-02-23T10:12:43.928Z,61628.75
2023-02-23T10:15:24.593Z,61629.84
2023-02-23T10:18:06.670Z,61638.19
2023-02-23T10:20:48.686Z,61644.88
2023-02-23T10:23:23.252Z,61657.53
2023-02-23T10:25:56.130Z,61661.41
2023-02-23T10:28:25.114Z,61670.03
2023-02-23T10:30:56.326Z,61673.81
2023-02-23T10:33:33.876Z,61679.28
2023-02-23T10:36:15.018Z,61683.38
2023-02-23T10:38:43.609Z,61681.88
2023-02-23T10:41:14.852Z,61661.00
2023-02-23T10:43:43.708Z,61674.78
2023-02-23T10:46:20.313Z,61685.66
2023-02-23T10:48:50.057Z,61693.47
2023-02-23T10:51:27.318Z,61695.22
2023-02-23T10:53:55.720Z,61696.91
2023-02-23T10:56:25.471Z,61710.78
2023-02-23T10:58:56.534Z,61702.31
2023-02-23T11:02:00.489Z,61696.72
2023-02-23T11:04:34.860Z,61688.31
2023-02-23T11:07:18.319Z,61694.56
2023-02-23T11:09:48.364Z,61677.25
2023-02-23T11:12:22.918Z,61698.44
2023-02-23T11:14:53.923Z,61699.50
2023-02-23T11:17:33.384Z,61709.28
2023-02-23T11:20:27.052Z,61710.50
2023-02-23T11:23:03.663Z,61725.31
2023-02-23T11:25:38.808Z,61720.81
2023-02-23T11:28:07.366Z,61731.34
2023-02-23T11:30:43.031Z,61740.81
2023-02-23T11:33:19.203Z,61731.34
2023-02-23T11:35:47.934Z,61744.69
2023-02-23T11:38:24.809Z,61744.25
2023-02-23T11:41:04.865Z,61750.72
2023-02-23T11:43:33.429Z,61765.78
2023-02-23T11:46:03.585Z,61764.81
2023-02-23T11:48:35.835Z,61803.97
2023-02-23T11:51:05.147Z,61879.81
2023-02-23T11:53:40.195Z,61936.50
2023-02-23T11:56:11.163Z,61993.97
2023-02-23T11:58:44.588Z,62032.38
2023-02-23T12:01:16.985Z,62016.22
2023-02-23T12:03:48.949Z,62037.78
2023-02-23T12:06:31.085Z,62061.50
2023-02-23T12:09:13.145Z,62055.03
2023-02-23T12:11:50.093Z,62055.03
2023-02-23T12:14:30.520Z,62022.69
2023-02-23T12:17:05.250Z,62002.81
2023-02-23T12:19:38.288Z,61975.75
2023-02-23T12:22:13.297Z,61953.22
2023-02-23T12:24:50.399Z,61937.47
2023-02-23T12:27:25.645Z,61917.63
2023-02-23T12:30:15.988Z,61898.66
2023-02-23T12:32:51.362Z,61883.16
2023-02-23T12:35:25.095Z,61863.66
2023-02-23T12:38:01.194Z,61850.31
2023-02-23T12:40:35.898Z,61813.13
2023-02-23T12:43:15.417Z,61823.28
2023-02-23T12:45:50.523Z,61806.56
2023-02-23T12:48:34.457Z,61784.63
2023-02-23T12:51:10.590Z,61782.47
2023-02-23T12:53:43.126Z,61780.75
2023-02-23T12:56:35.667Z,61775.47
2023-02-23T12:59:42.417Z,61785.16
2023-02-23T13:02:18.129Z,61777.53
2023-02-23T13:05:15.817Z,61773.75
2023-02-23T13:08:01.822Z,61768.47
2023-02-23T13:10:48.809Z,61768.34
2023-02-23T13:13:31.852Z,61780.19
2023-02-23T13:16:09.154Z,61766.75
2023-02-23T13:18:46.678Z,61757.59
2023-02-23T13:21:23.807Z,61746.84
2023-02-23T13:24:03.562Z,61755.56
2023-02-23T13:26:42.213Z,61753.94
2023-02-23T13:29:22.435Z,61742.09
2023-02-23T13:31:51.419Z,61730.28
2023-02-23T13:34:29.219Z,61730.28
2023-02-23T13:36:59.807Z,61736.75
2023-02-23T13:40:02.160Z,61742.09
2023-02-23T13:42:48.274Z,61740.38
2023-02-23T13:45:37.702Z,61723.81
2023-02-23T13:48:20.267Z,61723.69
2023-02-23T13:50:56.612Z,61723.69
2023-02-23T13:53:40.931Z,61732.41
2023-02-23T13:56:11.732Z,61719.94
2023-02-23T13:58:48.970Z,61737.56
2023-02-23T14:01:25.230Z,61738.34
2023-02-23T14:03:59.691Z,61741.03
2023-02-23T14:06:31.635Z,61742.97
2023-02-23T14:09:08.821Z,61767.06
2023-02-23T14:11:47.204Z,61773.75
2023-02-23T14:14:43.425Z,61775.03
2023-02-23T14:17:59.622Z,61781.41
2023-02-23T14:20:52.779Z,61797.53
2023-02-23T14:23:36.843Z,61807.09
2023-02-23T14:26:19.164Z,61809.25
2023-02-23T14:28:50.418Z,61796.56
2023-02-23T14:31:25.262Z,61789.44
2023-02-23T14:34:02.018Z,61794.31
2023-02-23T14:36:44.197Z,61786.88
2023-02-23T14:39:21.018Z,61793.13
2023-02-23T14:41:54.268Z,61788.38
2023-02-23T14:44:30.917Z,61794.41
2023-02-23T14:47:05.496Z,61800.66
2023-02-23T14:49:40.401Z,61801.84
2023-02-23T14:52:13.414Z,61801.19
2023-02-23T14:54:42.833Z,61800.22
2023-02-23T14:57:21.079Z,61801.28
2023-02-23T14:59:58.376Z,61812.06
2023-02-23T15:02:29.691Z,61794.41
2023-02-23T15:04:59.770Z,61803.44
2023-02-23T15:07:33.461Z,61794.84
2023-02-23T15:10:02.881Z,61798.06
2023-02-23T15:12:37.976Z,61796.34
2023-02-23T15:15:21.392Z,61808.63
2023-02-23T15:17:55.114Z,61798.50
2023-02-23T15:20:32.613Z,61788.81
2023-02-23T15:23:04.756Z,61789.25
2023-02-23T15:25:39.819Z,61772.25
2023-02-23T15:28:25.361Z,61782.78
2023-02-23T15:30:55.972Z,61793.66
2023-02-23T15:33:28.450Z,61788.38
2023-02-23T15:36:08.863Z,61779.66
2023-02-23T15:38:44.544Z,61781.94
2023-02-23T15:41:25.805Z,61768.03
2023-02-23T15:43:54.414Z,61763.19
2023-02-23T15:46:28.021Z,61752.34
2023-02-23T15:49:03.331Z,61727.72
2023-02-23T15:51:38.434Z,61722.75
2023-02-23T15:54:14.078Z,61718.97
2023-02-23T15:56:46.817Z,61728.97
2023-02-23T15:59:23.734Z,61718.88
2023-02-23T16:01:55.278Z,61729.53
2023-02-23T16:04:30.336Z,61722.75
2023-02-23T16:07:17.105Z,61728.66
2023-02-23T16:09:53.052Z,61737.56
2023-02-23T16:12:25.212Z,61720.16
2023-02-23T16:14:57.068Z,61716.28
2023-02-23T16:17:30.530Z,61723.81
2023-02-23T16:20:15.744Z,61717.38
2023-02-23T16:22:47.040Z,61704.47
2023-02-23T16:25:18.188Z,61699.31
2023-02-23T16:27:48.870Z,61705.53
2023-02-23T16:30:23.421Z,61700.25
2023-02-23T16:33:08.361Z,61686.94
2023-02-23T16:35:41.894Z,61689.94
2023-02-23T16:38:21.928Z,61688.31
2023-02-23T16:40:50.395Z,61693.28
2023-02-23T16:43:18.820Z,61696.38
2023-02-23T16:45:47.668Z,61700.69
2023-02-23T16:48:17.428Z,61699.63
2023-02-23T16:50:47.804Z,61684.03
2023-02-23T16:53:18.101Z,61685.09
2023-02-23T16:55:53.096Z,61678.66
2023-02-23T16:58:24.775Z,61678.09
2023-02-23T17:00:53.717Z,61682.72
2023-02-23T17:03:26.638Z,61673.91
2023-02-23T17:05:55.713Z,61678.00
2023-02-23T17:08:26.213Z,61664.63
2023-02-23T17:10:55.956Z,61659.59
2023-02-23T17:13:26.775Z,61648.00
2023-02-23T17:15:57.291Z,61650.69
2023-02-23T17:18:28.198Z,61650.03
2023-02-23T17:20:59.422Z,61644.13
2023-02-23T17:23:38.476Z,61644.75
2023-02-23T17:26:09.298Z,61637.75
2023-02-23T17:28:38.253Z,61624.88
2023-02-23T17:31:08.241Z,61627.97
2023-02-23T17:33:37.789Z,61629.59
2023-02-23T17:36:09.923Z,61632.41
2023-02-23T17:38:39.809Z,61625.94
2023-02-23T17:41:10.691Z,61608.09
2023-02-23T17:43:39.265Z,61613.47
2023-02-23T17:46:07.892Z,61607.69
2023-02-23T17:48:36.548Z,61609.72
2023-02-23T17:51:09.170Z,61611.53
2023-02-23T17:53:39.779Z,61614.03
2023-02-23T17:56:09.444Z,61613.06
2023-02-23T17:58:43.418Z,61613.38
2023-02-23T18:01:23.858Z,61600.16
2023-02-23T18:03:52.654Z,61595.84
2023-02-23T18:06:21.218Z,61591.56
2023-02-23T18:08:51.011Z,61586.72
2023-02-23T18:11:19.882Z,61589.41
2023-02-23T18:13:51.400Z,61593.06
2023-02-23T18:16:22.871Z,61591.03
2023-02-23T18:18:51.392Z,61590.91
2023-02-23T18:21:23.231Z,61575.44
2023-02-23T18:23:56.476Z,61573.31
2023-02-23T18:26:25.881Z,61565.78
2023-02-23T18:28:55.950Z,61563.63
2023-02-23T18:31:28.037Z,61562.03
2023-02-23T18:33:57.098Z,61548.69
2023-02-23T18:36:28.695Z,61558.16
2023-02-23T18:39:00.887Z,61559.75
2023-02-23T18:41:30.951Z,61558.25
2023-02-23T18:44:00.015Z,61557.19
2023-02-23T18:46:29.294Z,61566.31
2023-02-23T18:48:57.745Z,61565.13
2023-02-23T18:51:26.553Z,61556.75
2023-02-23T18:53:56.302Z,61546.44
2023-02-23T18:56:35.744Z,61540.22
2023-02-23T18:59:04.481Z,61540.66
2023-02-23T19:01:34.626Z,61540.00
2023-02-23T19:04:04.617Z,61536.34
2023-02-23T19:06:33.869Z,61547.09
2023-02-23T19:09:05.660Z,61542.13
2023-02-23T19:11:37.045Z,61543.66
2023-02-23T19:14:09.925Z,61542.69
2023-02-23T19:16:38.919Z,61543.88
2023-02-23T19:19:08.517Z,61538.91
2023-02-23T19:21:37.410Z,61543.00
2023-02-23T19:24:08.891Z,61536.78
2023-02-23T19:26:39.947Z,61540.00
2023-02-23T19:29:08.524Z,61550.19
2023-02-23T19:31:37.746Z,61547.53
2023-02-23T19:34:08.819Z,61540.66
2023-02-23T19:36:37.398Z,61546.44
2023-02-23T19:39:10.515Z,61541.06
2023-02-23T19:41:41.318Z,61534.00
2023-02-23T19:44:10.983Z,61533.13
2023-02-23T19:46:40.430Z,61537.53
2023-02-23T19:49:08.868Z,61541.06
2023-02-23T19:51:37.533Z,61531.41
2023-02-23T19:54:07.560Z,61541.50
2023-02-23T19:56:36.065Z,61539.34
2023-02-23T19:59:06.564Z,61541.59
2023-02-23T20:01:36.077Z,61546.97
2023-02-23T20:04:06.567Z,61555.16
2023-02-23T20:06:41.080Z,61560.94
2023-02-23T20:09:09.626Z,61563.63
2023-02-23T20:11:37.991Z,61553.97
2023-02-23T20:14:08.282Z,61560.94
2023-02-23T20:16:37.345Z,61558.78
2023-02-23T20:19:06.639Z,61550.84
2023-02-23T20:21:36.842Z,61531.41
2023-02-23T20:24:06.567Z,61518.09
2023-02-23T20:26:37.226Z,61521.31
2023-02-23T20:29:11.076Z,61503.06
2023-02-23T20:31:44.685Z,61493.81
2023-02-23T20:34:14.232Z,61500.66
2023-02-23T20:36:42.575Z,61500.78
2023-02-23T20:39:11.428Z,61502.28
2023-02-23T20:41:44.141Z,61500.13
2023-02-23T20:44:15.493Z,61512.50
2023-02-23T20:46:45.242Z,61516.38
2023-02-23T20:49:14.705Z,61515.06
2023-02-23T20:51:46.073Z,61520.03
2023-02-23T20:54:15.998Z,61515.72
2023-02-23T20:56:46.076Z,61515.31
2023-02-23T20:59:16.125Z,61514.66
2023-02-23T21:01:45.325Z,61508.22
2023-02-23T21:04:14.139Z,61512.94
2023-02-23T21:06:42.854Z,61509.38
2023-02-23T21:09:17.976Z,61504.13
2023-02-23T21:11:48.376Z,61506.28
2023-02-23T21:14:18.861Z,61513.59
2023-02-23T21:16:47.253Z,61500.78
2023-02-23T21:19:18.353Z,61500.25
2023-02-23T21:21:49.239Z,61502.41
2023-02-23T21:24:19.592Z,61508.84
2023-02-23T21:26:48.041Z,61512.50
2023-02-23T21:29:18.538Z,61509.50
2023-02-23T21:31:47.984Z,61516.38
2023-02-23T21:34:19.725Z,61516.16
2023-02-23T21:36:49.946Z,61517.97
2023-02-23T21:39:18.412Z,61517.03
2023-02-23T21:41:46.770Z,61516.91
2023-02-23T21:44:15.598Z,61523.78
2023-02-23T21:46:45.497Z,61507.53
2023-02-23T21:49:13.949Z,61501.34
2023-02-23T21:51:42.283Z,61491.25
2023-02-23T21:54:10.689Z,61490.88
2023-02-23T21:56:39.465Z,61483.19
2023-02-23T21:59:09.234Z,61473.66
2023-02-23T22:01:40.889Z,61486.84
2023-02-23T22:04:14.659Z,61481.72
2023-02-23T22:06:45.441Z,61476.63
2023-02-23T22:09:15.769Z,61481.75
2023-02-23T22:11:47.421Z,61475.97
2023-02-23T22:14:18.117Z,61478.78
2023-02-23T22:16:47.731Z,61477.72
2023-02-23T22:19:18.977Z,61466.84
2023-02-23T22:21:48.907Z,61461.06
2023-02-23T22:24:18.256Z,61453.78
2023-02-23T22:26:50.657Z,61454.53
2023-02-23T22:29:19.131Z,61452.38
2023-02-23T22:31:47.698Z,61442.53
2023-02-23T22:34:18.335Z,61439.63
2023-02-23T22:36:48.418Z,61442.97
2023-02-23T22:39:18.342Z,61429.00
2023-02-23T22:41:47.575Z,61422.56
2023-02-23T22:44:18.805Z,61416.66
2023-02-23T22:46:48.933Z,61422.56
2023-02-23T22:49:20.035Z,61427.28
2023-02-23T22:51:50.466Z,61426.84
2023-02-23T22:54:20.500Z,61430.06
2023-02-23T22:56:49.015Z,61434.13
2023-02-23T22:59:20.492Z,61428.88
2023-02-23T23:01:50.401Z,61425.78
2023-02-23T23:04:22.085Z,61424.06
2023-02-23T23:06:50.893Z,61420.41
2023-02-23T23:09:21.133Z,61430.50
2023-02-23T23:11:51.168Z,61440.16
2023-02-23T23:14:20.360Z,61448.84
2023-02-23T23:16:49.823Z,61426.44
2023-02-23T23:19:24.181Z,61430.50
2023-02-23T23:21:55.545Z,61434.13
2023-02-23T23:24:25.492Z,61421.50
2023-02-23T23:26:59.454Z,61426.31
2023-02-23T23:29:30.650Z,61426.97
2023-02-23T23:31:59.339Z,61435.31
2023-02-23T23:34:30.039Z,61433.72
2023-02-23T23:36:58.566Z,61429.84
2023-02-23T23:39:26.983Z,61419.13
2023-02-23T23:41:55.778Z,61406.66
2023-02-23T23:44:29.325Z,61375.78
2023-02-23T23:46:59.742Z,61384.13
2023-02-23T23:49:30.247Z,61386.00
2023-02-23T23:51:58.668Z,61379.44
2023-02-23T23:54:30.879Z,61380.38
2023-02-23T23:57:01.481Z,61375.53
2023-02-23T23:59:32.076Z,61373.66
